Time;durP1;ratioP1;P1;durP2;ratioP2;P2;SDS_P1;SDS_P2;PMS_P1;PMS_P2;Temp;Humidity;BMP_temperature;BMP_pressure;BME280_temperature;BME280_humidity;BME280_pressure;Samples;Min_cycle;Max_cycle;Signal;HPM_P1;HPM_P2
2020/12/19 12:31:41;;;;;;;4.37;3.98;;;;;;;4.51;69.55;99429.80;1745633;77;21043;-73
2020/12/19 12:34:16;;;;;;;3.90;2.98;;;;;;;4.50;68.81;99426.25;1663544;82;21470;-74
2020/12/19 12:36:45;;;;;;;4.87;2.87;;;;;;;4.51;68.57;99430.66;1719331;81;21151;-74
2020/12/19 12:39:14;;;;;;;2.75;2.42;;;;;;;4.52;68.40;99423.11;1725098;82;20956;-74
2020/12/19 12:41:46;;;;;;;4.62;2.50;;;;;;;4.55;68.03;99428.78;1719146;81;20983;-74
2020/12/19 12:44:14;;;;;;;2.83;2.50;;;;;;;4.58;68.20;99424.70;1708131;82;21204;-74
2020/12/19 12:46:44;;;;;;;3.15;2.85;;;;;;;4.60;67.85;99428.19;1716568;82;21394;-75
2020/12/19 12:49:12;;;;;;;3.12;2.83;;;;;;;4.61;67.58;99427.28;1711123;82;20972;-74
2020/12/19 12:51:40;;;;;;;4.42;3.25;;;;;;;4.63;67.21;99426.77;1717243;82;20968;-74
2020/12/19 12:54:07;;;;;;;4.03;3.08;;;;;;;4.64;66.78;99419.20;1718148;81;21028;-75
2020/12/19 12:56:36;;;;;;;6.75;3.55;;;;;;;4.67;67.22;99416.45;1687064;83;21362;-74
2020/12/19 12:59:04;;;;;;;4.03;3.15;;;;;;;4.67;67.47;99412.47;1750392;80;22560;-75
2020/12/19 13:01:32;;;;;;;3.33;2.83;;;;;;;4.66;66.93;99412.52;1697378;81;21125;-74
2020/12/19 13:04:00;;;;;;;2.67;2.37;;;;;;;4.65;66.84;99418.73;1703983;82;20970;-74
2020/12/19 13:06:30;;;;;;;4.03;3.20;;;;;;;4.65;66.65;99424.06;1718356;82;20984;-75
2020/12/19 13:08:58;;;;;;;3.10;2.80;;;;;;;4.65;66.03;99426.72;1712181;83;21025;-75
2020/12/19 13:11:27;;;;;;;3.02;2.72;;;;;;;4.64;66.15;99429.85;1715462;81;20941;-74
2020/12/19 13:13:57;;;;;;;2.65;2.45;;;;;;;4.65;65.98;99434.70;1730329;82;21015;-75
2020/12/19 13:16:24;;;;;;;2.80;2.60;;;;;;;4.64;65.53;99431.19;1718036;82;21472;-76
2020/12/19 13:18:53;;;;;;;3.50;3.02;;;;;;;4.65;65.87;99429.38;1731964;82;21097;-75
2020/12/19 13:21:21;;;;;;;8.28;3.42;;;;;;;4.65;65.84;99424.06;1711480;83;20957;-75
2020/12/19 13:23:49;;;;;;;5.75;3.77;;;;;;;4.65;66.17;99428.05;1719631;82;21156;-75
2020/12/19 13:26:18;;;;;;;3.67;3.37;;;;;;;4.62;66.23;99424.15;1727063;82;21475;-75
2020/12/19 13:28:46;;;;;;;7.85;3.85;;;;;;;4.61;66.24;99431.73;1720653;80;21079;-75
2020/12/19 13:31:14;;;;;;;4.45;3.58;;;;;;;4.57;66.26;99429.59;1719632;82;20952;-76
2020/12/19 13:33:41;;;;;;;4.58;4.17;;;;;;;4.56;66.27;99431.86;1713446;83;21009;-76
2020/12/19 13:36:10;;;;;;;4.40;3.45;;;;;;;4.53;66.32;99427.96;1737558;80;21324;-75
2020/12/19 13:38:39;;;;;;;12.60;4.75;;;;;;;4.50;66.05;99429.37;1749479;80;21118;-75
2020/12/19 13:41:07;;;;;;;5.05;4.22;;;;;;;4.47;66.14;99434.31;1750550;80;21043;-77
2020/12/19 13:43:35;;;;;;;7.53;6.12;;;;;;;4.45;66.42;99432.16;1722157;82;21267;-75
2020/12/19 13:46:02;;;;;;;7.58;4.58;;;;;;;4.44;66.39;99434.86;1690304;82;21092;-74
2020/12/19 13:48:30;;;;;;;5.83;4.67;;;;;;;4.40;66.49;99428.77;1724875;82;22740;-75
2020/12/19 13:51:00;;;;;;;5.30;4.78;;;;;;;4.38;66.34;99436.36;1712978;82;20993;-75
2020/12/19 13:53:27;;;;;;;6.80;5.37;;;;;;;4.34;66.42;99439.57;1719083;81;21091;-76
2020/12/19 13:55:54;;;;;;;11.40;4.78;;;;;;;4.32;66.55;99438.28;1715785;82;21028;-76
2020/12/19 13:58:22;;;;;;;5.72;4.08;;;;;;;4.31;66.55;99440.98;1701792;82;20983;-75
2020/12/19 14:00:50;;;;;;;4.97;4.17;;;;;;;4.28;66.44;99441.06;1715985;82;21583;-76
2020/12/19 14:03:17;;;;;;;5.72;4.87;;;;;;;4.25;66.68;99438.02;1691659;83;20972;-75
2020/12/19 14:05:48;;;;;;;4.58;4.17;;;;;;;4.22;66.73;99438.56;1710401;81;21492;-75
2020/12/19 14:08:16;;;;;;;6.62;5.40;;;;;;;4.19;66.84;99439.98;1747207;81;21564;-75
2020/12/19 14:10:45;;;;;;;6.10;5.25;;;;;;;4.15;66.94;99441.86;1719722;82;20949;-75
2020/12/19 14:13:16;;;;;;;6.58;5.45;;;;;;;4.11;67.04;99436.19;1693532;82;21776;-75
2020/12/19 14:15:46;;;;;;;5.72;5.05;;;;;;;4.07;67.22;99434.55;1689809;83;21139;-77
2020/12/19 14:18:15;;;;;;;6.05;5.03;;;;;;;4.02;67.17;99429.78;1703690;83;21095;-76
2020/12/19 14:20:44;;;;;;;5.35;4.75;;;;;;;3.98;67.33;99428.53;1695334;83;20949;-76
2020/12/19 14:23:14;;;;;;;7.50;5.35;;;;;;;3.94;67.45;99428.22;1749866;80;21007;-76
2020/12/19 14:25:44;;;;;;;8.50;5.20;;;;;;;3.92;67.47;99427.83;1746299;80;21138;-75
2020/12/19 14:28:13;;;;;;;7.53;5.22;;;;;;;3.88;67.64;99424.38;1747482;80;21031;-75
2020/12/19 14:30:43;;;;;;;7.05;5.25;;;;;;;3.83;67.81;99428.92;1749612;80;20918;-76
2020/12/19 14:33:14;;;;;;;8.95;5.70;;;;;;;3.78;67.90;99429.06;1750147;80;21027;-74
2020/12/19 14:35:45;;;;;;;8.50;5.83;;;;;;;3.74;68.00;99431.84;1707311;80;21009;-76
2020/12/19 14:38:14;;;;;;;6.72;6.03;;;;;;;3.69;68.06;99436.37;1747758;80;21438;-76
2020/12/19 14:40:41;;;;;;;7.33;6.58;;;;;;;3.65;68.22;99437.37;1747627;80;21551;-75
2020/12/19 14:43:13;;;;;;;9.93;7.22;;;;;;;3.60;68.38;99432.17;1747883;80;20928;-76
2020/12/19 14:45:42;;;;;;;8.90;7.05;;;;;;;3.54;68.46;99433.64;1747621;80;21111;-75
2020/12/19 14:48:10;;;;;;;10.38;7.62;;;;;;;3.49;68.61;99435.09;1743013;80;20940;-75
2020/12/19 14:50:39;;;;;;;14.13;7.40;;;;;;;3.43;68.74;99437.42;1748851;80;22356;-74
2020/12/19 14:53:12;;;;;;;11.57;7.53;;;;;;;3.38;68.93;99438.45;1730410;82;21055;-76
2020/12/19 14:55:39;;;;;;;10.88;7.92;;;;;;;3.33;69.16;99445.66;1719386;82;21029;-75
2020/12/19 14:58:08;;;;;;;11.55;8.10;;;;;;;3.27;69.33;99445.34;1687711;83;20953;-75
2020/12/19 15:00:37;;;;;;;12.90;9.13;;;;;;;3.22;69.49;99445.44;1744421;80;21035;-75
2020/12/19 15:03:05;;;;;;;12.20;8.05;;;;;;;3.16;69.57;99442.92;1719188;82;22351;-75
2020/12/19 15:05:35;;;;;;;13.08;8.58;;;;;;;3.12;69.71;99453.17;1721051;82;20957;-75
2020/12/19 15:08:07;;;;;;;15.83;9.48;;;;;;;3.07;69.81;99448.44;1683006;84;21504;-75
2020/12/19 15:10:36;;;;;;;13.75;9.53;;;;;;;3.01;69.94;99447.23;1724730;81;21028;-75
2020/12/19 15:13:05;;;;;;;16.85;9.38;;;;;;;2.96;70.16;99457.09;1718008;81;21671;-75
2020/12/19 15:15:34;;;;;;;18.62;11.38;;;;;;;2.87;70.32;99460.36;1716083;82;21133;-74
2020/12/19 15:18:01;;;;;;;38.58;14.70;;;;;;;2.81;70.58;99463.14;1662479;82;20976;-76
2020/12/19 15:20:32;;;;;;;51.28;22.00;;;;;;;2.74;70.83;99458.86;1713116;83;21199;-76
2020/12/19 15:23:01;;;;;;;52.88;22.42;;;;;;;2.65;71.07;99459.94;1680259;83;21016;-76
2020/12/19 15:25:28;;;;;;;41.42;24.02;;;;;;;2.57;71.35;99460.98;1693880;83;20973;-75
2020/12/19 15:27:56;;;;;;;46.92;24.85;;;;;;;2.46;71.61;99460.75;1717817;82;22124;-75
2020/12/19 15:30:24;;;;;;;50.55;24.07;;;;;;;2.37;71.89;99454.30;1728701;82;20913;-75
2020/12/19 15:32:55;;;;;;;36.03;22.42;;;;;;;2.29;72.19;99458.88;1694930;82;21537;-75
2020/12/19 15:35:24;;;;;;;28.50;21.00;;;;;;;2.19;72.49;99459.94;1705718;82;21672;-75
2020/12/19 15:37:53;;;;;;;44.45;22.40;;;;;;;2.09;72.67;99456.12;1740650;80;20948;-75
2020/12/19 15:40:23;;;;;;;43.63;24.32;;;;;;;2.01;72.88;99447.44;1746591;80;22072;-75
2020/12/19 15:42:53;;;;;;;35.90;22.37;;;;;;;1.93;73.24;99459.96;1751297;80;21023;-75
2020/12/19 15:45:20;;;;;;;28.07;17.60;;;;;;;1.87;73.57;99458.73;1673853;83;20972;-75
2020/12/19 15:47:50;;;;;;;26.55;17.32;;;;;;;1.80;73.87;99460.63;1673572;83;21332;-76
2020/12/19 15:50:21;;;;;;;28.05;17.48;;;;;;;1.73;74.06;99462.48;1727608;82;20965;-75
2020/12/19 15:52:49;;;;;;;27.55;18.32;;;;;;;1.68;74.22;99458.17;1681027;84;21284;-75
2020/12/19 15:55:18;;;;;;;27.87;19.40;;;;;;;1.61;74.39;99460.05;1749094;80;21599;-75
2020/12/19 15:57:50;;;;;;;43.90;23.02;;;;;;;1.55;74.48;99462.33;1753681;80;21579;-75
2020/12/19 16:00:18;;;;;;;39.60;22.85;;;;;;;1.49;74.60;99464.21;1721825;82;20960;-75
2020/12/19 16:02:47;;;;;;;52.90;27.67;;;;;;;1.43;74.94;99462.09;1720851;82;21070;-75
2020/12/19 16:05:17;;;;;;;57.70;29.57;;;;;;;1.37;75.01;99463.50;1743111;80;22185;-74
2020/12/19 16:07:44;;;;;;;59.33;36.75;;;;;;;1.31;75.31;99464.02;1750754;80;20979;-72
2020/12/19 16:10:19;;;;;;;68.05;39.92;;;;;;;1.25;75.54;99463.68;1749510;80;21008;-75
2020/12/19 16:12:47;;;;;;;46.00;27.00;;;;;;;1.17;75.75;99452.34;1748362;80;21127;-75
2020/12/19 16:15:17;;;;;;;42.55;23.98;;;;;;;1.13;75.92;99454.59;1742121;80;21152;-77
2020/12/19 16:17:45;;;;;;;58.63;23.67;;;;;;;1.06;76.10;99458.64;1749031;80;21812;-75
2020/12/19 16:20:13;;;;;;;48.17;24.85;;;;;;;1.02;76.09;99453.41;1750448;80;20948;-74
2020/12/19 16:22:41;;;;;;;42.53;24.25;;;;;;;0.95;76.24;99457.05;1750234;80;21052;-75
2020/12/19 16:25:11;;;;;;;65.70;24.98;;;;;;;0.86;76.36;99459.36;1716903;82;21020;-75
2020/12/19 16:27:43;;;;;;;69.77;27.32;;;;;;;0.77;76.57;99454.19;1676747;85;20930;-76
2020/12/19 16:30:11;;;;;;;69.92;26.93;;;;;;;0.69;76.74;99459.14;1708226;83;21927;-76
2020/12/19 16:32:41;;;;;;;54.65;25.50;;;;;;;0.61;76.89;99462.30;1725457;81;21176;-76
2020/12/19 16:35:10;;;;;;;71.17;26.82;;;;;;;0.55;76.94;99454.44;1713448;82;21007;-75
2020/12/19 16:37:41;;;;;;;63.90;28.87;;;;;;;0.47;77.12;99461.59;1686715;85;20953;-75
2020/12/19 16:40:10;;;;;;;56.33;27.65;;;;;;;0.39;77.30;99463.45;1716297;81;26860;-75
2020/12/19 16:42:39;;;;;;;80.67;30.00;;;;;;;0.31;77.50;99465.71;1748525;80;21251;-76
2020/12/19 16:45:09;;;;;;;59.42;28.47;;;;;;;0.24;77.69;99461.41;1742777;80;20975;-75
2020/12/19 16:47:38;;;;;;;65.03;29.02;;;;;;;0.18;77.80;99465.42;1746774;80;21582;-74
2020/12/19 16:50:08;;;;;;;68.37;28.70;;;;;;;0.09;77.98;99463.73;1714502;82;21134;-76
2020/12/19 16:52:41;;;;;;;58.52;26.55;;;;;;;0.04;78.26;99479.22;1728454;80;21068;-76
2020/12/19 16:55:12;;;;;;;66.90;24.63;;;;;;;-0.04;78.31;99476.19;1686157;83;21663;-75
2020/12/19 16:57:43;;;;;;;69.05;28.67;;;;;;;-0.11;78.45;99478.48;1685554;83;21018;-75
2020/12/19 17:00:12;;;;;;;86.02;27.90;;;;;;;-0.16;78.62;99478.94;1738509;80;21062;-75
2020/12/19 17:02:42;;;;;;;54.13;22.82;;;;;;;-0.23;78.76;99487.81;1720486;81;20905;-76
2020/12/19 17:05:12;;;;;;;61.92;24.25;;;;;;;-0.30;78.88;99489.64;1697992;82;21089;-76
2020/12/19 17:07:41;;;;;;;38.53;22.77;;;;;;;-0.35;79.01;99495.83;1717889;82;21588;-76
2020/12/19 17:10:09;;;;;;;38.50;21.70;;;;;;;-0.41;79.19;99495.00;1718723;82;20964;-76
2020/12/19 17:12:38;;;;;;;55.30;30.82;;;;;;;-0.43;79.37;99498.52;1715492;82;21016;-76
2020/12/19 17:15:07;;;;;;;70.15;41.63;;;;;;;-0.48;79.65;99488.45;1750220;80;21051;-75
2020/12/19 17:17:35;;;;;;;58.20;33.92;;;;;;;-0.52;79.88;99494.62;1718241;82;20929;-75
2020/12/19 17:20:05;;;;;;;61.95;35.08;;;;;;;-0.57;79.95;99493.33;1682455;84;21355;-75
2020/12/19 17:22:35;;;;;;;64.92;38.58;;;;;;;-0.61;80.08;99495.58;1694356;81;21106;-75
2020/12/19 17:25:03;;;;;;;64.17;38.90;;;;;;;-0.64;80.24;99489.00;1707201;82;21121;-75
2020/12/19 17:27:34;;;;;;;74.90;39.75;;;;;;;-0.67;80.45;99496.48;1701605;82;20965;-74
2020/12/19 17:30:03;;;;;;;62.05;34.15;;;;;;;-0.69;80.66;99496.05;1717074;83;20945;-75
2020/12/19 17:32:30;;;;;;;68.75;35.00;;;;;;;-0.74;80.85;99494.33;1718316;82;21568;-77
2020/12/19 17:34:57;;;;;;;52.50;31.57;;;;;;;-0.76;81.04;99493.47;1714774;82;21039;-76
2020/12/19 17:37:27;;;;;;;46.42;28.55;;;;;;;-0.80;81.06;99490.41;1718168;81;20950;-75
2020/12/19 17:39:55;;;;;;;48.23;27.48;;;;;;;-0.82;81.14;99505.80;1707049;82;21043;-77
2020/12/19 17:42:23;;;;;;;50.10;28.95;;;;;;;-0.87;81.27;99502.32;1708937;82;21104;-75
2020/12/19 17:44:56;;;;;;;47.65;27.67;;;;;;;-0.90;81.29;99495.29;1716711;82;21534;-75
2020/12/19 17:47:23;;;;;;;68.02;39.08;;;;;;;-0.93;81.36;99504.53;1712911;82;20929;-75
2020/12/19 17:49:51;;;;;;;83.62;41.33;;;;;;;-0.97;81.47;99500.18;1718835;81;21121;-76
2020/12/19 17:52:20;;;;;;;75.10;37.50;;;;;;;-1.00;81.54;99501.06;1715434;83;21003;-76
2020/12/19 17:54:49;;;;;;;74.10;37.98;;;;;;;-1.04;81.61;99496.70;1680580;84;21167;-75
2020/12/19 17:57:20;;;;;;;67.97;38.67;;;;;;;-1.07;81.68;99498.45;1748745;80;22021;-76
2020/12/19 17:59:48;;;;;;;85.97;39.90;;;;;;;-1.11;81.77;99499.78;1752204;80;20988;-75
2020/12/19 18:02:17;;;;;;;104.87;43.28;;;;;;;-1.14;81.86;99492.34;1745404;80;20964;-75
2020/12/19 18:04:47;;;;;;;90.32;45.15;;;;;;;-1.18;81.86;99494.12;1725384;81;20908;-76
2020/12/19 18:07:18;;;;;;;92.27;47.27;;;;;;;-1.21;81.80;99498.55;1682244;82;20940;-76
2020/12/19 18:09:47;;;;;;;96.53;49.98;;;;;;;-1.24;81.90;99497.23;1752271;80;22364;-75
2020/12/19 18:12:18;;;;;;;108.85;50.60;;;;;;;-1.29;81.93;99501.20;1692666;82;21105;-76
2020/12/19 18:14:46;;;;;;;124.75;61.30;;;;;;;-1.32;82.02;99506.48;1724978;82;21071;-75
2020/12/19 18:17:17;;;;;;;129.40;63.08;;;;;;;-1.36;82.04;99498.14;1715872;82;21016;-75
2020/12/19 18:19:47;;;;;;;117.35;62.05;;;;;;;-1.40;82.10;99497.28;1747399;80;21091;-76
2020/12/19 18:22:17;;;;;;;108.55;54.67;;;;;;;-1.44;82.18;99492.03;1739363;80;21406;-75
2020/12/19 18:24:45;;;;;;;80.45;44.50;;;;;;;-1.48;82.29;99488.08;1719082;81;20968;-76
2020/12/19 18:27:12;;;;;;;78.55;45.38;;;;;;;-1.50;82.31;99491.17;1719638;83;21458;-78
2020/12/19 18:29:41;;;;;;;72.53;47.25;;;;;;;-1.54;82.25;99495.14;1718112;82;21295;-75
2020/12/19 18:32:12;;;;;;;127.20;78.37;;;;;;;-1.54;82.34;99494.69;1680929;83;20992;-75
2020/12/19 18:34:46;;;;;;;110.22;62.83;;;;;;;-1.57;82.47;99496.01;1720757;82;21370;-75
2020/12/19 18:37:17;;;;;;;97.75;55.33;;;;;;;-1.58;82.72;99491.61;1711663;81;20975;-76
2020/12/19 18:39:44;;;;;;;105.83;60.10;;;;;;;-1.60;83.01;99492.06;1674008;83;21560;-74
2020/12/19 18:42:15;;;;;;;110.03;58.92;;;;;;;-1.61;83.10;99492.94;1675796;82;21595;-75
2020/12/19 18:44:47;;;;;;;105.30;58.45;;;;;;;-1.63;83.17;99488.13;1688489;83;20949;-76
2020/12/19 18:47:18;;;;;;;106.75;57.15;;;;;;;-1.64;83.21;99498.21;1725053;82;22343;-76
2020/12/19 18:49:48;;;;;;;104.03;55.63;;;;;;;-1.67;83.24;99496.48;1747889;80;21055;-76
2020/12/19 18:52:18;;;;;;;94.17;51.65;;;;;;;-1.70;83.34;99491.67;1711286;81;21056;-75
2020/12/19 18:54:48;;;;;;;62.73;38.33;;;;;;;-1.73;83.48;99482.45;1743004;80;20947;-75
2020/12/19 18:57:15;;;;;;;66.57;39.83;;;;;;;-1.74;83.71;99472.79;1748636;80;20900;-76
2020/12/19 18:59:44;;;;;;;66.60;39.38;;;;;;;-1.73;84.04;99485.09;1724204;81;21218;-76
2020/12/19 19:02:13;;;;;;;67.40;41.10;;;;;;;-1.73;84.25;99481.14;1744829;80;21873;-76
2020/12/19 19:04:40;;;;;;;76.15;41.42;;;;;;;-1.70;84.40;99478.50;1748441;80;21592;-75
2020/12/19 19:07:08;;;;;;;70.97;39.83;;;;;;;-1.70;84.51;99474.55;1748260;80;20932;-76
2020/12/19 19:09:35;;;;;;;67.03;39.45;;;;;;;-1.70;84.52;99482.45;1749144;80;21074;-74
2020/12/19 19:12:10;;;;;;;69.85;41.68;;;;;;;-1.70;84.51;99477.18;1712911;82;22649;-75
2020/12/19 19:14:40;;;;;;;72.17;44.67;;;;;;;-1.71;84.45;99476.28;1703422;81;21486;-75
2020/12/19 19:17:08;;;;;;;71.22;44.65;;;;;;;-1.73;84.38;99477.19;1714012;81;21503;-75
2020/12/19 19:19:36;;;;;;;94.05;53.58;;;;;;;-1.76;84.23;99480.69;1698573;82;21052;-75
2020/12/19 19:22:06;;;;;;;78.52;48.52;;;;;;;-1.78;84.10;99486.83;1739721;80;20948;-75
2020/12/19 19:24:36;;;;;;;82.45;42.83;;;;;;;-1.81;83.98;99487.73;1725000;82;21425;-76
2020/12/19 19:27:05;;;;;;;79.67;44.50;;;;;;;-1.84;83.98;99493.88;1691068;83;20998;-75
2020/12/19 19:29:36;;;;;;;84.62;50.75;;;;;;;-1.87;83.81;99492.56;1698969;82;21093;-74
2020/12/19 19:32:05;;;;;;;79.35;48.68;;;;;;;-1.88;83.78;99492.11;1746945;80;21707;-75
2020/12/19 19:34:34;;;;;;;80.55;47.25;;;;;;;-1.89;83.89;99489.48;1725801;80;21019;-75
2020/12/19 19:37:07;;;;;;;85.62;51.50;;;;;;;-1.91;83.98;99489.48;1722200;82;22674;-73
2020/12/19 19:39:46;;;;;;;84.75;51.05;;;;;;;-1.92;83.99;99493.02;1747045;80;20964;-76
2020/12/19 19:42:15;;;;;;;82.78;50.33;;;;;;;-1.94;84.13;99497.42;1750029;80;20912;-76
2020/12/19 19:44:42;;;;;;;102.50;57.33;;;;;;;-1.96;84.06;99491.25;1723827;82;21202;-76
2020/12/19 19:47:13;;;;;;;129.80;70.22;;;;;;;-1.98;84.06;99494.34;1747995;80;21011;-75
2020/12/19 19:49:42;;;;;;;107.25;59.85;;;;;;;-2.00;84.08;99496.10;1749324;80;21397;-76
2020/12/19 19:52:11;;;;;;;108.05;58.28;;;;;;;-2.02;84.08;99500.47;1718253;82;21055;-74
2020/12/19 19:54:40;;;;;;;102.30;58.83;;;;;;;-2.05;84.10;99502.69;1686123;82;21656;-75
2020/12/19 19:57:08;;;;;;;109.00;54.55;;;;;;;-2.07;84.10;99498.29;1713876;82;21048;-75
2020/12/19 19:59:41;;;;;;;94.37;53.00;;;;;;;-2.10;84.14;99496.97;1717173;82;21611;-75
2020/12/19 20:02:09;;;;;;;79.12;49.23;;;;;;;-2.10;84.06;99503.55;1722851;82;21583;-75
2020/12/19 20:04:39;;;;;;;87.22;50.08;;;;;;;-2.14;84.06;99505.73;1718294;82;37481;-75
2020/12/19 20:07:10;;;;;;;86.30;49.13;;;;;;;-2.16;84.10;99514.98;1748771;80;21035;-76
2020/12/19 20:09:37;;;;;;;85.05;47.67;;;;;;;-2.19;84.13;99517.16;1722932;82;20964;-75
2020/12/19 20:12:05;;;;;;;78.15;47.00;;;;;;;-2.20;84.25;99513.22;1749700;80;21190;-75
2020/12/19 20:14:38;;;;;;;86.35;47.45;;;;;;;-2.22;84.32;99518.93;1748430;80;21128;-74
2020/12/19 20:17:08;;;;;;;91.25;48.55;;;;;;;-2.26;84.35;99515.39;1748243;80;21472;-75
2020/12/19 20:19:37;;;;;;;79.10;46.73;;;;;;;-2.26;84.34;99516.71;1712892;81;21564;-76
2020/12/19 20:22:04;;;;;;;85.15;46.45;;;;;;;-2.27;84.39;99512.34;1722712;82;21125;-76
2020/12/19 20:24:37;;;;;;;84.07;45.78;;;;;;;-2.28;84.46;99509.27;1708949;82;20986;-75
2020/12/19 20:27:06;;;;;;;85.85;46.92;;;;;;;-2.28;84.53;99509.72;1693094;83;27339;-75
2020/12/19 20:29:39;;;;;;;84.10;48.95;;;;;;;-2.30;84.53;99512.34;1690145;82;20950;-75
2020/12/19 20:32:10;;;;;;;87.05;47.00;;;;;;;-2.32;84.55;99510.12;1718013;81;21056;-75
2020/12/19 20:34:38;;;;;;;72.97;43.55;;;;;;;-2.33;84.53;99517.60;1709497;83;21036;-75
2020/12/19 20:37:06;;;;;;;80.92;44.55;;;;;;;-2.35;84.43;99524.59;1751612;80;21465;-74
2020/12/19 20:39:35;;;;;;;73.12;43.35;;;;;;;-2.36;84.43;99528.13;1712403;81;22149;-76
2020/12/19 20:42:07;;;;;;;73.12;43.02;;;;;;;-2.38;84.37;99531.17;1745102;80;20944;-75
2020/12/19 20:44:34;;;;;;;74.67;43.73;;;;;;;-2.41;84.36;99530.75;1709982;80;21378;-75
2020/12/19 20:47:02;;;;;;;62.93;40.03;;;;;;;-2.43;84.35;99540.41;1712054;82;21505;-75
2020/12/19 20:49:32;;;;;;;69.75;41.83;;;;;;;-2.44;84.33;99540.41;1685906;83;21548;-75
2020/12/19 20:52:01;;;;;;;61.23;38.85;;;;;;;-2.46;84.32;99539.08;1685080;83;21395;-75
2020/12/19 20:54:30;;;;;;;69.00;41.30;;;;;;;-2.48;84.29;99539.94;1718186;81;21055;-75
2020/12/19 20:56:59;;;;;;;58.08;38.10;;;;;;;-2.52;84.22;99533.81;1686662;84;21305;-76
2020/12/19 20:59:29;;;;;;;63.17;42.05;;;;;;;-2.52;84.24;99539.48;1751414;80;21031;-75
2020/12/19 21:02:01;;;;;;;66.37;41.42;;;;;;;-2.55;84.24;99537.75;1750567;80;20940;-74
2020/12/19 21:04:29;;;;;;;69.87;38.85;;;;;;;-2.58;84.25;99543.00;1705818;81;21213;-74
2020/12/19 21:06:58;;;;;;;54.38;34.80;;;;;;;-2.59;84.14;99546.05;1697045;83;21017;-75
2020/12/19 21:09:27;;;;;;;61.28;37.73;;;;;;;;;;1721911;81;21059;-74
2020/12/19 21:11:58;;;;;;;61.75;38.38;;;;;;;-2.61;84.37;99541.68;1719368;83;20976;-75
2020/12/19 21:14:25;;;;;;;59.63;37.63;;;;;;;-2.63;84.60;99537.73;1678014;83;20940;-75
2020/12/19 21:16:54;;;;;;;58.35;38.20;;;;;;;-2.62;84.84;99534.20;1696506;82;21421;-74
2020/12/19 21:19:23;;;;;;;51.60;33.58;;;;;;;-2.61;84.86;99535.97;1721286;82;21117;-74
2020/12/19 21:21:51;;;;;;;56.13;34.43;;;;;;;-2.62;84.91;99535.52;1712404;83;20961;-75
2020/12/19 21:24:19;;;;;;;53.70;32.50;;;;;;;-2.62;84.92;99539.46;1722673;81;21556;-75
2020/12/19 21:26:46;;;;;;;51.77;32.73;;;;;;;-2.62;84.93;99545.17;1724122;82;20956;-74
2020/12/19 21:29:14;;;;;;;51.00;34.53;;;;;;;-2.63;84.86;99546.94;1707397;82;21459;-74
2020/12/19 21:31:41;;;;;;;56.40;35.92;;;;;;;-2.63;84.98;99544.75;1745026;81;21035;-74
2020/12/19 21:34:13;;;;;;;62.85;36.38;;;;;;;-2.62;85.00;99549.98;1736636;82;22287;-74
2020/12/19 21:36:40;;;;;;;60.83;36.33;;;;;;;-2.64;85.03;99548.25;1721095;81;20964;-75
2020/12/19 21:39:10;;;;;;;47.60;31.57;;;;;;;-2.65;85.06;99546.06;1715774;82;21008;-76
2020/12/19 21:41:44;;;;;;;54.53;32.40;;;;;;;-2.66;85.12;99544.74;1725340;82;21827;-75
2020/12/19 21:44:12;;;;;;;50.52;31.40;;;;;;;-2.67;85.08;99546.92;1722101;82;21652;-75
2020/12/19 21:46:44;;;;;;;41.40;28.67;;;;;;;-2.69;85.08;99540.34;1698145;82;21012;-75
2020/12/19 21:49:15;;;;;;;48.83;30.45;;;;;;;-2.69;85.08;99545.60;1681818;83;20969;-74
2020/12/19 21:51:43;;;;;;;35.55;22.67;;;;;;;-2.70;85.07;99546.47;1722156;82;21008;-74
2020/12/19 21:54:11;;;;;;;36.10;22.20;;;;;;;-2.72;85.07;99550.85;1715602;82;21213;-75
2020/12/19 21:56:41;;;;;;;26.90;20.57;;;;;;;-2.73;84.97;99549.98;1710188;83;21016;-74
2020/12/19 21:59:09;;;;;;;33.90;21.05;;;;;;;-2.73;85.00;99551.30;1718755;82;20957;-74
2020/12/19 22:01:37;;;;;;;32.03;20.12;;;;;;;-2.74;84.95;99555.24;1721945;81;21138;-75
2020/12/19 22:04:05;;;;;;;45.80;22.62;;;;;;;-2.75;84.92;99554.78;1712507;83;20913;-75
2020/12/19 22:06:37;;;;;;;38.45;22.62;;;;;;;-2.77;84.97;99556.09;1737288;81;21460;-75
2020/12/19 22:09:05;;;;;;;37.17;22.10;;;;;;;-2.79;84.98;99553.01;1749607;80;21066;-75
2020/12/19 22:11:40;;;;;;;26.12;19.60;;;;;;;-2.79;85.00;99558.27;1717871;81;22323;-75
2020/12/19 22:14:10;;;;;;;32.48;21.70;;;;;;;-2.80;85.01;99557.85;1717393;82;21054;-75
2020/12/19 22:16:39;;;;;;;30.23;20.97;;;;;;;-2.81;85.01;99556.08;1686198;84;21360;-74
2020/12/19 22:19:08;;;;;;;31.35;19.35;;;;;;;-2.83;84.92;99559.16;1750919;80;21815;-75
2020/12/19 22:21:36;;;;;;;26.80;18.35;;;;;;;-2.83;84.84;99552.58;1746147;80;21056;-74
2020/12/19 22:24:03;;;;;;;28.57;17.02;;;;;;;-2.84;84.83;99552.13;1724519;81;21483;-74
2020/12/19 22:26:33;;;;;;;26.37;17.57;;;;;;;-2.86;84.85;99555.20;1726113;81;20968;-75
2020/12/19 22:29:01;;;;;;;24.47;17.02;;;;;;;-2.87;84.81;99556.06;1730740;80;20964;-75
2020/12/19 22:31:30;;;;;;;22.82;15.88;;;;;;;-2.88;84.73;99557.82;1743170;80;21393;-74
2020/12/19 22:33:57;;;;;;;22.52;15.53;;;;;;;-2.91;84.68;99554.73;1750676;80;20904;-74
2020/12/19 22:36:25;;;;;;;21.37;15.03;;;;;;;-2.92;84.60;99550.78;1750609;80;21512;-74
2020/12/19 22:38:53;;;;;;;19.30;14.45;;;;;;;-2.92;84.45;99556.94;1749280;80;21115;-74
2020/12/19 22:41:20;;;;;;;21.05;14.60;;;;;;;-2.94;84.39;99556.03;1746102;80;21059;-74
2020/12/19 22:43:49;;;;;;;22.50;15.23;;;;;;;-2.94;84.45;99566.55;1726200;81;22151;-73
2020/12/19 22:46:17;;;;;;;22.22;14.98;;;;;;;-2.95;84.54;99563.91;1728223;82;21084;-74
2020/12/19 22:48:44;;;;;;;27.32;15.43;;;;;;;-2.94;84.68;99569.18;1720684;82;20945;-73
2020/12/19 22:51:13;;;;;;;19.80;14.93;;;;;;;-2.94;84.77;99563.92;1736841;80;21024;-73
2020/12/19 22:53:41;;;;;;;21.57;14.80;;;;;;;-2.94;84.85;99565.23;1748466;80;21004;-74
2020/12/19 22:56:10;;;;;;;25.15;15.05;;;;;;;-2.95;84.96;99567.45;1726394;80;21818;-73
2020/12/19 22:58:38;;;;;;;20.52;15.18;;;;;;;-2.94;84.98;99568.31;1710185;82;20945;-75
2020/12/19 23:01:05;;;;;;;26.27;15.08;;;;;;;-2.95;85.00;99564.81;1721524;82;21004;-75
2020/12/19 23:03:32;;;;;;;33.65;16.37;;;;;;;-2.93;85.05;99569.63;1724295;82;20999;-73
2020/12/19 23:06:01;;;;;;;21.57;13.95;;;;;;;-2.93;85.10;99569.63;1750273;80;21524;-74
2020/12/19 23:08:28;;;;;;;22.50;16.15;;;;;;;-2.92;85.09;99568.77;1750462;80;21809;-73
2020/12/19 23:10:55;;;;;;;26.65;16.20;;;;;;;-2.91;85.09;99569.64;1717821;82;21585;-73
2020/12/19 23:13:25;;;;;;;27.15;17.85;;;;;;;-2.92;85.09;99560.88;1713031;83;20960;-73
2020/12/19 23:15:53;;;;;;;27.25;18.45;;;;;;;-2.91;85.11;99566.56;1721747;82;21055;-74
2020/12/19 23:18:22;;;;;;;26.95;17.67;;;;;;;-2.87;85.30;99567.44;1741051;80;21049;-73
2020/12/19 23:20:54;;;;;;;26.68;16.55;;;;;;;-2.85;85.39;99564.82;1723321;82;21308;-73
2020/12/19 23:23:21;;;;;;;30.70;19.02;;;;;;;-2.83;85.54;99565.73;1748906;80;21110;-74
2020/12/19 23:25:49;;;;;;;30.00;18.40;;;;;;;-2.79;85.66;99572.73;1726439;82;21080;-74
2020/12/19 23:28:17;;;;;;;28.92;19.23;;;;;;;-2.79;85.76;99570.10;1705046;82;21477;-73
2020/12/19 23:30:46;;;;;;;26.37;16.87;;;;;;;-2.74;85.84;99573.65;1725055;82;20952;-74
2020/12/19 23:33:13;;;;;;;26.10;16.82;;;;;;;-2.71;86.02;99578.92;1695512;82;22086;-74
2020/12/19 23:35:42;;;;;;;33.02;18.10;;;;;;;-2.67;86.18;99576.72;1746136;80;21690;-74
2020/12/19 23:38:09;;;;;;;26.17;16.87;;;;;;;-2.63;86.18;99573.69;1726075;81;21000;-74
2020/12/19 23:40:37;;;;;;;29.37;17.98;;;;;;;-2.60;86.39;99574.56;1713765;81;20956;-74
2020/12/19 23:43:05;;;;;;;29.80;17.00;;;;;;;-2.56;86.54;99578.94;1719512;82;21095;-74
2020/12/19 23:45:32;;;;;;;29.82;19.52;;;;;;;-2.51;86.71;99573.69;1713555;81;21511;-74
2020/12/19 23:48:00;;;;;;;32.53;18.65;;;;;;;-2.45;86.87;99576.78;1719357;81;21118;-73
2020/12/19 23:50:28;;;;;;;59.45;28.95;;;;;;;-2.39;86.99;99578.11;1710919;82;21469;-73
2020/12/19 23:52:55;;;;;;;44.95;27.98;;;;;;;-2.33;87.08;99577.23;1721357;82;20937;-74
2020/12/19 23:55:23;;;;;;;39.70;23.62;;;;;;;-2.28;87.13;99578.14;1728616;81;21084;-74
2020/12/19 23:57:51;;;;;;;32.23;20.17;;;;;;;-2.24;87.08;99575.52;1718203;82;21200;-73
